Time;durP1;ratioP1;P1;durP2;ratioP2;P2;SDS_P1;SDS_P2;PMS_P1;PMS_P2;Temp;Humidity;BMP_temperature;BMP_pressure;BME280_temperature;BME280_humidity;BME280_pressure;Samples;Min_cycle;Max_cycle;Signal;HPM_P1;HPM_P2
2022/08/30 00:01:05;;;;;;;19.40;7.18;;;;;;;15.22;79.97;101948.13;5025459;28;20041;-65
2022/08/30 00:03:42;;;;;;;10.93;5.97;;;;;;;15.21;78.85;101958.22;5024396;28;20054;-67
2022/08/30 00:06:08;;;;;;;15.13;6.88;;;;;;;15.19;78.69;101951.97;5025340;28;20666;-65
2022/08/30 00:08:36;;;;;;;9.10;6.20;;;;;;;15.14;78.94;101939.59;5025615;28;20135;-66
2022/08/30 00:11:04;;;;;;;9.02;6.15;;;;;;;15.13;80.50;101944.19;5024372;28;20036;-65
2022/08/30 00:13:30;;;;;;;11.25;5.88;;;;;;;15.11;78.86;101946.19;5004633;28;20725;-67
2022/08/30 00:15:56;;;;;;;12.27;6.38;;;;;;;15.13;79.85;101948.81;5006417;28;20022;-65
2022/08/30 00:18:22;;;;;;;9.82;5.38;;;;;;;15.10;80.74;101949.91;5007159;28;20100;-65
2022/08/30 00:20:49;;;;;;;9.05;5.85;;;;;;;15.09;81.22;101948.16;5010340;28;20065;-66
2022/08/30 00:23:15;;;;;;;10.80;6.18;;;;;;;15.01;80.49;101946.00;5020978;28;20039;-65
2022/08/30 00:25:41;;;;;;;11.32;6.20;;;;;;;14.97;81.49;101947.22;5023469;28;20060;-65
2022/08/30 00:28:08;;;;;;;13.15;5.80;;;;;;;14.97;81.11;101946.34;5005688;28;20082;-64
2022/08/30 00:30:34;;;;;;;11.98;6.68;;;;;;;14.96;82.49;101952.78;5005654;28;20046;-64
2022/08/30 00:32:59;;;;;;;10.75;5.43;;;;;;;14.93;79.78;101959.38;5021806;28;20059;-66
2022/08/30 00:35:25;;;;;;;9.73;5.70;;;;;;;14.91;80.19;101955.84;5029685;28;20120;-64
2022/08/30 00:37:50;;;;;;;11.00;5.90;;;;;;;14.89;81.81;101946.88;5029246;28;20029;-65
2022/08/30 00:40:18;;;;;;;9.27;6.05;;;;;;;14.84;81.05;101945.47;5035532;28;20041;-64
2022/08/30 00:42:43;;;;;;;11.77;5.68;;;;;;;14.81;80.15;101943.81;5020225;28;20045;-68
2022/08/30 00:45:23;;;;;;;14.25;6.57;;;;;;;14.80;81.90;101948.44;5009283;28;20037;-65
2022/08/30 00:47:49;;;;;;;7.60;5.28;;;;;;;14.78;80.65;101942.19;5014738;28;20091;-65
2022/08/30 00:50:19;;;;;;;11.38;6.40;;;;;;;14.74;80.86;101948.88;5019792;28;20044;-64
2022/08/30 00:52:47;;;;;;;8.05;4.82;;;;;;;14.71;81.11;101949.09;5020431;28;20445;-66
2022/08/30 00:55:15;;;;;;;13.90;5.70;;;;;;;14.71;82.09;101945.50;5028712;28;20022;-67
2022/08/30 00:57:44;;;;;;;9.30;5.88;;;;;;;14.68;80.79;101949.31;5029477;28;20120;-65
2022/08/30 01:00:12;;;;;;;7.45;5.63;;;;;;;14.67;81.29;101960.38;5009022;28;20163;-64
2022/08/30 01:02:37;;;;;;;8.15;5.72;;;;;;;14.66;81.17;101959.50;5008410;28;20128;-65
2022/08/30 01:05:07;;;;;;;10.00;5.40;;;;;;;14.63;79.88;101961.59;5027998;28;20433;-65
2022/08/30 01:07:33;;;;;;;9.18;5.22;;;;;;;14.67;81.84;101955.78;5029106;28;20041;-64
2022/08/30 01:10:00;;;;;;;9.25;5.10;;;;;;;14.65;81.35;101956.91;5020754;28;20421;-65
2022/08/30 01:12:27;;;;;;;11.32;5.55;;;;;;;14.64;83.73;101957.84;5021187;28;20083;-65
2022/08/30 01:14:52;;;;;;;10.30;5.68;;;;;;;14.68;82.25;101957.53;5028320;28;20381;-66
2022/08/30 01:17:18;;;;;;;8.00;5.22;;;;;;;14.69;81.27;101956.56;5027521;28;20040;-65
2022/08/30 01:19:50;;;;;;;11.13;5.90;;;;;;;14.75;82.70;101957.97;5018556;28;20132;-64
2022/08/30 01:22:45;;;;;;;10.25;5.75;;;;;;;14.82;81.71;101966.63;5028520;28;20041;-66
2022/08/30 01:25:12;;;;;;;12.32;5.65;;;;;;;14.80;81.61;101964.88;5010506;28;20885;-65
2022/08/30 01:27:43;;;;;;;10.57;5.82;;;;;;;14.79;82.58;101963.13;5027831;28;20064;-65
2022/08/30 01:30:10;;;;;;;9.40;5.43;;;;;;;14.81;82.16;101968.47;5028366;28;20040;-65
2022/08/30 01:32:43;;;;;;;10.65;6.40;;;;;;;14.83;82.92;101965.63;5026145;28;20132;-67
2022/08/30 01:35:16;;;;;;;9.32;5.35;;;;;;;14.87;83.25;101964.41;5017189;28;20132;-66
2022/08/30 01:37:43;;;;;;;9.32;5.38;;;;;;;14.84;82.49;101960.06;5028469;28;20045;-65
2022/08/30 01:40:10;;;;;;;7.70;5.07;;;;;;;14.82;83.51;101953.78;5027693;28;20021;-64
2022/08/30 01:42:35;;;;;;;7.57;5.55;;;;;;;14.81;83.23;101954.78;5015238;28;20041;-66
2022/08/30 01:45:01;;;;;;;11.13;6.28;;;;;;;14.79;84.67;101957.66;5007782;28;20040;-66
2022/08/30 01:47:26;;;;;;;13.25;5.90;;;;;;;14.76;83.05;101955.13;5008915;28;20033;-65
2022/08/30 01:49:52;;;;;;;11.40;6.18;;;;;;;14.77;84.63;101962.34;5026294;28;20409;-66
2022/08/30 01:52:18;;;;;;;13.60;6.70;;;;;;;14.79;85.37;101957.66;5026756;28;20029;-65
2022/08/30 01:54:44;;;;;;;8.52;5.57;;;;;;;14.76;83.32;101959.72;5027420;28;20025;-65
2022/08/30 01:57:13;;;;;;;8.63;5.35;;;;;;;14.73;82.80;101957.19;5017571;28;20128;-65
2022/08/30 01:59:41;;;;;;;8.57;5.28;;;;;;;14.71;82.56;101961.91;5007724;28;20037;-64
2022/08/30 02:02:07;;;;;;;8.80;5.65;;;;;;;14.68;83.74;101964.88;5020865;28;20021;-65
2022/08/30 02:04:32;;;;;;;11.70;5.68;;;;;;;14.65;84.48;101967.84;5025032;28;20042;-65
2022/08/30 02:06:58;;;;;;;11.23;5.75;;;;;;;14.60;83.44;101953.63;5034031;28;20503;-65
2022/08/30 02:09:23;;;;;;;10.30;5.93;;;;;;;14.54;83.72;101953.03;5047433;28;20029;-65
2022/08/30 02:11:49;;;;;;;9.45;5.70;;;;;;;14.54;83.09;101949.44;5034368;28;20034;-65
2022/08/30 02:14:14;;;;;;;11.65;6.38;;;;;;;14.55;85.76;101945.72;5023092;28;20036;-65
2022/08/30 02:16:40;;;;;;;7.93;5.60;;;;;;;14.53;83.80;101951.28;5047208;28;20041;-66
2022/08/30 02:19:06;;;;;;;9.05;5.13;;;;;;;14.48;83.13;101953.47;5028955;28;20468;-64
2022/08/30 02:21:32;;;;;;;10.60;5.07;;;;;;;14.46;83.46;101949.97;5011104;28;20045;-65
2022/08/30 02:23:57;;;;;;;9.10;6.15;;;;;;;14.46;86.00;101949.97;5027433;28;20018;-66
2022/08/30 02:26:24;;;;;;;12.80;7.00;;;;;;;14.49;86.75;101949.75;5024816;28;20072;-66
2022/08/30 02:28:51;;;;;;;9.32;5.25;;;;;;;14.50;84.18;101947.88;5022619;28;20050;-66
2022/08/30 02:31:19;;;;;;;12.70;6.40;;;;;;;14.51;85.29;101946.94;5007128;28;20041;-64
2022/08/30 02:33:44;;;;;;;10.50;5.15;;;;;;;14.50;83.33;101948.78;5015890;28;20044;-65
2022/08/30 02:36:10;;;;;;;11.77;5.93;;;;;;;14.50;84.38;101942.41;5026484;28;20688;-64
2022/08/30 02:38:35;;;;;;;7.20;5.40;;;;;;;14.44;84.79;101943.69;5027150;28;20041;-65
2022/08/30 02:41:01;;;;;;;10.63;5.57;;;;;;;14.41;84.12;101943.94;5026364;28;20491;-68
2022/08/30 02:43:27;;;;;;;9.32;5.95;;;;;;;14.38;84.90;101949.63;5027192;28;20107;-64
2022/08/30 02:45:52;;;;;;;6.88;5.65;;;;;;;14.36;83.63;101945.22;5026830;28;20029;-65
2022/08/30 02:48:18;;;;;;;11.80;7.15;;;;;;;14.37;86.80;101945.13;5025788;28;20041;-65
2022/08/30 02:50:47;;;;;;;10.63;7.07;;;;;;;14.36;87.07;101946.13;5026514;28;20048;-66
2022/08/30 02:53:12;;;;;;;9.20;5.90;;;;;;;14.39;85.49;101943.16;5026821;28;20178;-66
2022/08/30 02:55:38;;;;;;;8.52;5.72;;;;;;;14.39;84.40;101936.81;5025963;28;20512;-66
2022/08/30 02:58:03;;;;;;;11.77;5.95;;;;;;;14.36;84.32;101931.53;5022219;28;20082;-64
2022/08/30 03:00:29;;;;;;;10.25;5.65;;;;;;;14.39;84.94;101934.06;5044096;28;20033;-66
2022/08/30 03:02:54;;;;;;;10.13;6.72;;;;;;;14.38;85.76;101924.09;5025574;28;20111;-65
2022/08/30 03:05:20;;;;;;;12.93;6.13;;;;;;;14.37;85.48;101919.63;5025525;28;20095;-65
2022/08/30 03:07:46;;;;;;;7.03;5.82;;;;;;;14.35;84.25;101932.53;5026599;28;20426;-65
2022/08/30 03:10:12;;;;;;;6.95;5.60;;;;;;;14.29;82.90;101923.75;5026196;28;20048;-65
2022/08/30 03:12:38;;;;;;;8.20;5.82;;;;;;;14.27;83.04;101925.75;5013734;28;20092;-65
2022/08/30 03:15:05;;;;;;;11.48;6.32;;;;;;;14.23;84.27;101920.59;5006623;28;20034;-64
2022/08/30 03:17:30;;;;;;;11.57;6.43;;;;;;;14.20;83.75;101929.88;5006623;28;20454;-64
2022/08/30 03:19:59;;;;;;;10.15;6.88;;;;;;;14.20;84.85;101920.81;5024745;28;20060;-66
2022/08/30 03:22:24;;;;;;;10.45;6.45;;;;;;;14.20;84.66;101921.69;5026573;28;20052;-66
2022/08/30 03:24:50;;;;;;;8.43;5.97;;;;;;;14.17;83.89;101927.34;5025868;28;20055;-64
2022/08/30 03:27:15;;;;;;;11.82;6.88;;;;;;;14.16;85.75;101932.94;5016232;28;20409;-65
2022/08/30 03:29:41;;;;;;;11.90;6.82;;;;;;;14.17;85.73;101923.75;5006180;28;20186;-65
2022/08/30 03:32:06;;;;;;;14.32;7.97;;;;;;;14.18;86.92;101920.06;5006360;28;20096;-65
2022/08/30 03:34:31;;;;;;;11.88;6.88;;;;;;;14.19;85.10;101922.66;5020386;28;20424;-67
2022/08/30 03:37:00;;;;;;;13.80;6.15;;;;;;;14.23;83.74;101929.69;5027375;28;20030;-65
2022/08/30 03:39:26;;;;;;;9.93;6.55;;;;;;;14.25;84.58;101927.69;5026212;28;20029;-65
2022/08/30 03:41:52;;;;;;;11.57;7.68;;;;;;;14.30;86.76;101930.13;5025400;28;20037;-65
2022/08/30 03:44:19;;;;;;;12.45;7.28;;;;;;;14.32;86.36;101925.44;5025653;28;20096;-65
2022/08/30 03:46:45;;;;;;;10.00;7.18;;;;;;;14.33;85.48;101924.44;5025719;28;20080;-65
2022/08/30 03:49:11;;;;;;;12.52;7.82;;;;;;;14.33;86.39;101916.22;5023996;28;20041;-68
2022/08/30 03:51:36;;;;;;;10.60;8.20;;;;;;;14.35;87.34;101919.72;5025917;28;20392;-65
2022/08/30 03:54:01;;;;;;;13.02;8.27;;;;;;;14.38;87.69;101926.84;5025327;28;20147;-66
2022/08/30 03:56:27;;;;;;;10.55;7.60;;;;;;;14.36;86.14;101923.31;5026045;28;20444;-65
2022/08/30 03:58:52;;;;;;;11.85;8.35;;;;;;;14.35;87.25;101924.31;5025634;28;20068;-65
2022/08/30 04:01:18;;;;;;;10.70;6.57;;;;;;;14.35;85.31;101930.66;5024945;28;20500;-65
2022/08/30 04:03:43;;;;;;;13.95;8.82;;;;;;;14.36;87.40;101935.19;5017310;28;20049;-68
2022/08/30 04:06:09;;;;;;;13.85;7.65;;;;;;;14.32;85.90;101921.81;5021615;28;20084;-66
2022/08/30 04:08:34;;;;;;;15.63;8.18;;;;;;;14.32;85.82;101924.56;5028862;28;20056;-65
2022/08/30 04:11:01;;;;;;;11.23;7.43;;;;;;;14.33;87.12;101929.03;5031964;28;20049;-67
2022/08/30 04:13:28;;;;;;;11.02;8.63;;;;;;;14.33;85.86;101929.91;5032050;28;20041;-65
2022/08/30 04:15:53;;;;;;;10.13;8.43;;;;;;;14.32;86.74;101930.91;5032092;28;20120;-69
2022/08/30 04:18:19;;;;;;;15.23;8.20;;;;;;;14.28;85.91;101927.50;5031260;28;21107;-65
2022/08/30 04:20:46;;;;;;;12.32;8.68;;;;;;;14.26;86.86;101925.84;5031978;28;20033;-66
2022/08/30 04:23:12;;;;;;;12.38;8.50;;;;;;;14.23;86.96;101924.22;5032019;28;20045;-65
2022/08/30 04:25:39;;;;;;;13.18;8.07;;;;;;;14.19;86.17;101932.75;5031799;28;20052;-65
2022/08/30 04:28:05;;;;;;;11.80;8.73;;;;;;;14.13;87.43;101934.06;5015696;28;20129;-66
2022/08/30 04:30:31;;;;;;;15.82;9.25;;;;;;;14.12;86.70;101935.00;5012126;28;20099;-65
2022/08/30 04:32:57;;;;;;;17.45;9.85;;;;;;;14.10;88.00;101936.13;5029071;28;20052;-64
2022/08/30 04:35:23;;;;;;;13.45;8.38;;;;;;;14.09;85.47;101938.00;5031689;28;20037;-65
2022/08/30 04:37:48;;;;;;;13.18;8.75;;;;;;;14.08;86.74;101940.81;5031947;28;20033;-65
2022/08/30 04:40:14;;;;;;;13.43;8.20;;;;;;;14.08;85.58;101944.41;5030418;28;20048;-65
2022/08/30 04:42:42;;;;;;;10.15;7.75;;;;;;;14.10;85.13;101949.81;5031211;28;20503;-65
2022/08/30 04:45:12;;;;;;;13.88;9.25;;;;;;;14.10;86.22;101947.06;5031867;28;20384;-65
2022/08/30 04:47:38;;;;;;;11.57;8.20;;;;;;;14.09;87.24;101937.13;5047680;28;20041;-65
2022/08/30 04:50:08;;;;;;;17.55;9.82;;;;;;;14.09;85.94;101948.94;5030995;28;20036;-64
2022/08/30 04:52:34;;;;;;;13.63;8.70;;;;;;;14.10;86.65;101947.06;5034042;28;20097;-66
2022/08/30 04:54:59;;;;;;;16.13;8.38;;;;;;;14.08;85.18;101955.38;5052006;28;20060;-65
2022/08/30 04:57:26;;;;;;;12.45;9.50;;;;;;;14.06;87.36;101951.00;5040188;28;20051;-65
2022/08/30 04:59:52;;;;;;;13.20;9.07;;;;;;;14.07;85.78;101955.47;5031620;28;20029;-65
2022/08/30 05:02:18;;;;;;;15.15;8.55;;;;;;;14.06;86.13;101957.34;5030493;28;20400;-65
2022/08/30 05:07:29;;;;;;;15.98;10.70;;;;;;;14.10;88.10;101958.88;5030244;28;20045;-65
2022/08/30 05:09:55;;;;;;;13.65;9.70;;;;;;;14.09;86.20;101948.94;5031236;28;20147;-65
2022/08/30 05:12:21;;;;;;;16.70;9.50;;;;;;;14.10;86.64;101955.28;5031284;28;20029;-65
2022/08/30 05:14:46;;;;;;;15.27;9.10;;;;;;;14.11;86.64;101957.91;5031304;28;20563;-66
2022/08/30 05:17:12;;;;;;;16.85;10.65;;;;;;;14.09;86.86;101954.41;5031542;28;20055;-66
2022/08/30 05:19:37;;;;;;;12.45;9.32;;;;;;;14.10;87.03;101966.22;5014866;28;20032;-65
2022/08/30 05:22:02;;;;;;;13.18;9.85;;;;;;;14.07;86.48;101960.97;5013648;28;20041;-64
2022/08/30 05:24:28;;;;;;;16.52;10.27;;;;;;;14.05;86.76;101966.53;5027297;28;20048;-65
2022/08/30 05:26:53;;;;;;;16.23;10.00;;;;;;;14.07;86.55;101966.44;5027033;28;20021;-65
2022/08/30 05:29:19;;;;;;;13.63;10.82;;;;;;;14.09;88.34;101970.81;5027059;28;20033;-64
2022/08/30 05:31:45;;;;;;;17.80;10.95;;;;;;;14.10;87.49;101967.09;5026611;28;20029;-69
2022/08/30 05:34:10;;;;;;;20.42;10.48;;;;;;;14.18;87.52;101980.25;5026353;28;20119;-66
2022/08/30 05:36:37;;;;;;;19.27;11.60;;;;;;;14.24;88.79;101974.34;5024031;28;20396;-65
2022/08/30 05:39:07;;;;;;;17.65;11.00;;;;;;;14.31;87.07;101975.66;5026096;28;20033;-65
2022/08/30 05:41:33;;;;;;;16.20;9.77;;;;;;;14.40;87.54;101977.75;5026671;28;20041;-65
2022/08/30 05:43:59;;;;;;;15.45;10.57;;;;;;;14.45;87.67;101981.03;5027549;28;20516;-65
2022/08/30 05:46:28;;;;;;;15.90;11.38;;;;;;;14.52;88.10;101984.28;5010538;28;20035;-66
2022/08/30 05:48:55;;;;;;;15.23;11.93;;;;;;;14.57;87.77;101976.59;5027181;28;20048;-65
2022/08/30 05:51:23;;;;;;;20.17;11.90;;;;;;;14.60;87.91;101979.13;5011435;28;20446;-66
2022/08/30 05:53:51;;;;;;;16.00;11.18;;;;;;;14.65;87.21;101982.41;5027364;28;20065;-66
2022/08/30 05:56:19;;;;;;;20.95;12.05;;;;;;;14.67;87.76;101983.16;5026533;28;20056;-66
2022/08/30 05:58:46;;;;;;;19.48;11.95;;;;;;;14.67;87.14;101980.44;5027819;28;20033;-64
2022/08/30 06:01:32;;;;;;;17.25;11.63;;;;;;;14.69;86.53;101973.00;5027861;28;20042;-64
2022/08/30 06:04:02;;;;;;;20.13;12.07;;;;;;;14.68;87.78;101982.19;5026521;28;20132;-65
2022/08/30 06:06:28;;;;;;;17.27;12.40;;;;;;;14.67;87.83;101979.56;5010929;28;20042;-64
2022/08/30 06:08:54;;;;;;;20.35;11.52;;;;;;;14.67;87.29;101980.44;5007637;28;20025;-67
2022/08/30 06:11:22;;;;;;;17.60;11.93;;;;;;;14.71;87.12;101975.63;5018762;28;20108;-65
2022/08/30 06:13:49;;;;;;;15.25;11.82;;;;;;;14.74;87.37;101975.41;5026585;28;20124;-65
2022/08/30 06:16:17;;;;;;;19.55;12.85;;;;;;;14.79;87.41;101978.69;5027086;28;20033;-66
2022/08/30 06:18:42;;;;;;;21.10;13.32;;;;;;;14.84;87.35;101976.50;5025929;28;20037;-65
2022/08/30 06:21:07;;;;;;;18.90;13.45;;;;;;;14.90;87.29;101980.66;5026995;28;20389;-65
2022/08/30 06:23:33;;;;;;;20.75;13.80;;;;;;;14.98;87.19;101984.59;5027430;28;20068;-65
2022/08/30 06:26:06;;;;;;;20.63;14.65;;;;;;;15.01;87.21;101984.38;5027134;28;20038;-67
2022/08/30 06:28:31;;;;;;;;;;;;;;;15.13;85.28;101982.59;5027202;28;20439;-65
2022/08/30 06:30:57;;;;;;;20.42;12.77;;;;;;;15.18;86.07;101983.13;5027421;28;19959;-64
2022/08/30 06:33:23;;;;;;;17.13;11.50;;;;;;;15.24;85.70;101974.44;5024820;28;20555;-66
2022/08/30 06:35:48;;;;;;;19.98;12.23;;;;;;;15.29;85.83;101976.81;5023635;28;20033;-65
2022/08/30 06:38:13;;;;;;;14.43;10.45;;;;;;;15.34;85.24;101976.47;5022575;28;20037;-64
2022/08/30 06:40:39;;;;;;;15.75;11.18;;;;;;;15.40;85.42;101974.19;5024735;28;20029;-65
2022/08/30 06:43:04;;;;;;;17.02;11.25;;;;;;;15.45;84.87;101977.44;5011258;28;20022;-65
2022/08/30 06:45:29;;;;;;;16.25;11.98;;;;;;;15.49;85.68;101978.09;5007701;28;20398;-65
2022/08/30 06:47:57;;;;;;;15.85;10.20;;;;;;;15.53;84.85;101975.00;5007869;28;20108;-65
2022/08/30 06:50:24;;;;;;;17.13;10.90;;;;;;;15.60;84.65;101971.81;5026394;28;20029;-65
2022/08/30 06:52:50;;;;;;;14.43;10.82;;;;;;;15.66;84.92;101971.34;5024947;28;20277;-65
2022/08/30 06:55:17;;;;;;;15.57;10.85;;;;;;;15.73;83.53;101981.75;5026316;28;20041;-65
2022/08/30 06:57:43;;;;;;;15.80;11.30;;;;;;;15.76;83.18;101972.41;5025864;28;20037;-65
2022/08/30 07:00:12;;;;;;;21.13;10.85;;;;;;;15.79;83.49;101969.44;5026631;28;20045;-66
2022/08/30 07:02:37;;;;;;;13.40;10.02;;;;;;;15.82;83.73;101975.56;5023993;28;20081;-66
2022/08/30 07:05:04;;;;;;;14.20;10.07;;;;;;;15.85;83.58;101979.94;5025203;28;20063;-65
2022/08/30 07:07:29;;;;;;;15.82;10.07;;;;;;;15.90;82.96;101979.56;5027212;28;20045;-65
2022/08/30 07:09:54;;;;;;;13.85;10.43;;;;;;;15.95;83.03;101977.38;5026530;28;20347;-65
2022/08/30 07:12:21;;;;;;;14.32;9.77;;;;;;;15.97;82.92;101976.25;5022730;28;20041;-65
2022/08/30 07:14:46;;;;;;;14.65;10.43;;;;;;;16.05;82.68;101983.91;5026074;28;20028;-65
2022/08/30 07:19:56;;;;;;;15.80;9.35;;;;;;;16.17;82.28;101982.94;5025924;28;20520;-66
2022/08/30 07:22:21;;;;;;;13.13;9.45;;;;;;;16.20;82.45;101988.19;5026292;28;20090;-65
2022/08/30 07:24:47;;;;;;;11.05;8.38;;;;;;;16.25;81.92;101985.09;5025088;28;20045;-66
2022/08/30 07:27:13;;;;;;;13.55;9.20;;;;;;;16.31;81.78;101995.59;5024608;28;20045;-66
2022/08/30 07:29:38;;;;;;;11.52;8.80;;;;;;;16.36;81.64;101998.84;5025832;28;20029;-65
2022/08/30 07:32:05;;;;;;;13.07;8.70;;;;;;;16.42;80.87;101990.16;5026066;28;20547;-67
2022/08/30 07:34:30;;;;;;;11.57;8.38;;;;;;;16.50;80.15;101986.78;5024732;28;20041;-65
2022/08/30 07:36:55;;;;;;;10.27;8.20;;;;;;;16.58;80.40;101990.66;5025595;28;20030;-65
2022/08/30 07:39:21;;;;;;;12.27;8.55;;;;;;;16.67;79.51;101996.44;5025665;28;20148;-65
2022/08/30 07:41:47;;;;;;;10.10;7.15;;;;;;;16.75;78.99;101991.25;5025408;28;20045;-65
2022/08/30 07:44:13;;;;;;;12.30;7.50;;;;;;;16.81;78.64;101991.59;5024013;28;20018;-65
2022/08/30 07:46:39;;;;;;;10.85;8.07;;;;;;;16.92;78.28;101987.97;5025673;28;20039;-67
2022/08/30 07:49:05;;;;;;;13.00;7.47;;;;;;;17.03;78.72;101989.88;5023730;28;20456;-64
2022/08/30 07:51:30;;;;;;;9.88;7.25;;;;;;;17.15;78.46;101990.75;5009816;28;20130;-68
2022/08/30 07:53:56;;;;;;;10.88;7.07;;;;;;;17.23;76.72;101994.59;5025968;28;20060;-65
2022/08/30 07:56:22;;;;;;;8.43;7.55;;;;;;;17.32;76.47;101991.09;5011547;28;20041;-66
2022/08/30 07:58:48;;;;;;;9.25;6.43;;;;;;;17.40;76.02;101990.47;5019150;28;20126;-65
2022/08/30 08:01:14;;;;;;;11.20;5.82;;;;;;;17.50;76.60;101994.22;5025345;28;20132;-67
2022/08/30 08:03:41;;;;;;;7.85;6.78;;;;;;;17.60;75.07;101994.31;5024410;28;20506;-66
2022/08/30 08:06:09;;;;;;;12.55;6.65;;;;;;;17.70;76.04;101995.28;5025368;28;20041;-65
2022/08/30 08:08:36;;;;;;;12.48;6.75;;;;;;;17.77;73.85;101995.69;5025735;28;20139;-66
2022/08/30 08:11:11;;;;;;;9.68;6.32;;;;;;;17.87;75.80;101996.66;5024912;28;20484;-66
2022/08/30 08:13:37;;;;;;;6.75;5.38;;;;;;;17.97;74.54;101986.59;5024733;28;20064;-65
2022/08/30 08:16:02;;;;;;;7.07;5.97;;;;;;;18.09;73.79;101992.91;5025556;28;20057;-65
2022/08/30 08:18:28;;;;;;;8.05;6.63;;;;;;;18.15;72.14;101992.41;5016334;28;20038;-65
2022/08/30 08:20:53;;;;;;;9.63;6.28;;;;;;;18.23;72.75;101999.97;5025137;28;20036;-66
2022/08/30 08:23:20;;;;;;;10.52;5.70;;;;;;;18.35;73.06;101998.94;5025611;28;20033;-65
2022/08/30 08:25:45;;;;;;;7.38;5.63;;;;;;;18.52;74.41;102002.97;5025124;28;20049;-65
2022/08/30 08:28:11;;;;;;;8.82;5.47;;;;;;;18.69;72.23;102002.38;5009262;28;20052;-66
2022/08/30 08:30:37;;;;;;;7.38;5.30;;;;;;;18.76;71.21;102009.13;5005693;28;20034;-66
2022/08/30 08:33:04;;;;;;;7.80;5.15;;;;;;;18.99;71.76;102000.69;5006454;28;20037;-65
2022/08/30 08:35:30;;;;;;;7.32;5.57;;;;;;;19.14;70.03;102002.03;5017653;28;20026;-65
2022/08/30 08:37:55;;;;;;;6.65;4.38;;;;;;;19.24;68.20;102005.72;5026289;28;20041;-66
2022/08/30 08:40:21;;;;;;;7.63;4.80;;;;;;;19.31;68.04;102004.16;5023326;28;20527;-64
2022/08/30 08:42:59;;;;;;;6.55;4.35;;;;;;;19.44;68.46;102008.53;5024641;28;20041;-66
2022/08/30 08:45:37;;;;;;;6.50;4.47;;;;;;;19.66;68.22;102007.47;5025279;28;20547;-65
2022/08/30 08:48:08;;;;;;;5.85;4.53;;;;;;;19.79;67.17;102006.19;5024488;28;20527;-65
2022/08/30 08:50:34;;;;;;;7.55;4.30;;;;;;;19.91;66.16;102014.34;5016242;28;20037;-65
2022/08/30 08:55:52;;;;;;;5.70;4.00;;;;;;;19.86;64.04;102018.44;5027707;28;20134;-65
2022/08/30 08:58:26;;;;;;;6.50;4.32;;;;;;;19.91;64.65;102019.88;5028391;28;20481;-66
2022/08/30 09:00:55;;;;;;;7.85;4.07;;;;;;;19.96;64.75;102023.06;5029035;28;20045;-65
2022/08/30 09:03:22;;;;;;;6.40;3.53;;;;;;;20.07;65.66;102020.19;5027596;28;20041;-65
2022/08/30 09:05:49;;;;;;;4.90;3.65;;;;;;;20.18;63.68;102011.75;5028546;28;20048;-64
2022/08/30 09:08:17;;;;;;;7.47;4.35;;;;;;;20.31;62.92;102015.09;5029019;28;20048;-64
2022/08/30 09:10:52;;;;;;;6.80;3.85;;;;;;;20.59;63.84;102012.47;5028515;28;20037;-65
2022/08/30 09:13:18;;;;;;;8.55;3.97;;;;;;;20.76;61.89;102014.50;5028109;28;20044;-66
2022/08/30 09:15:44;;;;;;;3.65;3.30;;;;;;;20.88;64.73;102012.41;5028559;28;20109;-66
2022/08/30 09:18:09;;;;;;;7.22;3.28;;;;;;;21.05;61.31;102013.53;5024823;28;20120;-65
2022/08/30 09:20:41;;;;;;;7.28;3.85;;;;;;;21.34;59.85;102019.84;5018241;28;20568;-65
2022/08/30 09:23:20;;;;;;;7.87;3.50;;;;;;;21.41;60.64;102006.28;5028432;28;20752;-66
2022/08/30 09:26:07;;;;;;;6.93;3.17;;;;;;;21.60;61.29;102010.84;5010871;28;20346;-64
2022/08/30 09:29:04;;;;;;;7.30;3.72;;;;;;;21.79;60.98;102004.31;5027746;28;20234;-66
2022/08/30 09:31:46;;;;;;;8.27;3.75;;;;;;;21.96;59.90;102006.19;5028146;28;20053;-65
2022/08/30 09:34:17;;;;;;;6.70;3.53;;;;;;;21.98;57.95;102003.28;5027455;28;20095;-66
2022/08/30 09:36:51;;;;;;;9.05;3.17;;;;;;;22.07;58.17;102003.22;5010197;28;20066;-65
2022/08/30 09:39:24;;;;;;;3.40;3.10;;;;;;;22.31;56.13;102013.69;5008539;28;20061;-65
2022/08/30 09:41:50;;;;;;;5.75;3.10;;;;;;;22.51;55.61;102006.06;5013531;28;20119;-65
2022/08/30 09:44:18;;;;;;;10.07;4.13;;;;;;;22.59;55.06;102020.00;5027958;28;20508;-65
2022/08/30 09:46:53;;;;;;;6.07;3.05;;;;;;;22.59;57.47;102003.34;5027534;28;20079;-65
2022/08/30 09:49:37;;;;;;;7.55;3.25;;;;;;;22.63;57.24;102009.47;5027105;28;20120;-65
2022/08/30 09:52:16;;;;;;;4.75;3.28;;;;;;;22.69;53.19;102007.94;5028276;28;20124;-65
2022/08/30 09:55:00;;;;;;;5.15;3.40;;;;;;;22.67;54.52;102008.09;5027775;28;20033;-65
2022/08/30 09:57:54;;;;;;;4.57;2.88;;;;;;;22.96;56.09;102006.94;5028054;28;20034;-65
2022/08/30 10:00:23;;;;;;;3.50;3.17;;;;;;;23.30;53.93;102007.81;5027802;28;20045;-65
2022/08/30 10:03:20;;;;;;;7.03;3.05;;;;;;;23.56;55.88;102006.91;5027187;28;20172;-65
2022/08/30 10:06:13;;;;;;;4.50;2.75;;;;;;;23.92;55.37;102005.66;5023341;28;20736;-65
2022/08/30 10:09:15;;;;;;;4.30;2.70;;;;;;;23.87;52.93;102009.97;5008128;28;20089;-67
2022/08/30 10:12:05;;;;;;;3.22;2.15;;;;;;;24.00;53.82;102004.78;5007411;28;20056;-64
2022/08/30 10:14:57;;;;;;;9.15;3.08;;;;;;;23.77;50.74;101999.00;5007533;28;20083;-67
2022/08/30 10:17:44;;;;;;;12.77;2.85;;;;;;;23.66;49.88;102014.09;5007000;28;20034;-64
2022/08/30 10:20:14;;;;;;;6.93;2.60;;;;;;;23.68;53.28;102002.78;5024932;28;20481;-65
2022/08/30 10:22:47;;;;;;;3.55;2.28;;;;;;;23.88;52.03;101997.81;5026764;28;20045;-65
2022/08/30 10:25:42;;;;;;;;;;;;;;;23.92;52.23;101996.41;5025890;28;20431;-64
2022/08/30 10:28:28;;;;;;;6.88;2.78;;;;;;;23.70;52.29;101995.16;5021487;28;19921;-64
2022/08/30 10:31:03;;;;;;;6.45;2.95;;;;;;;23.86;50.07;101988.78;5027473;28;20037;-64
2022/08/30 10:33:36;;;;;;;3.95;2.08;;;;;;;24.04;50.67;102000.63;5026895;28;20043;-64
2022/08/30 10:36:05;;;;;;;4.13;2.17;;;;;;;23.82;49.08;102001.25;5026765;28;20083;-65
2022/08/30 10:38:33;;;;;;;6.50;2.70;;;;;;;23.87;48.81;102002.50;5027320;28;20128;-64
2022/08/30 10:41:27;;;;;;;4.45;2.10;;;;;;;23.93;51.06;101992.63;5026834;28;20042;-65
2022/08/30 10:43:59;;;;;;;3.63;2.22;;;;;;;24.26;48.65;101990.75;5007110;28;20044;-66
2022/08/30 10:46:33;;;;;;;10.80;1.83;;;;;;;24.47;48.85;101979.13;5007167;28;20121;-65
2022/08/30 10:49:02;;;;;;;7.28;2.15;;;;;;;24.28;47.66;101994.22;5018561;28;20452;-65
2022/08/30 10:51:28;;;;;;;4.90;1.95;;;;;;;24.25;47.12;101993.69;5027151;28;20079;-65
2022/08/30 10:54:16;;;;;;;5.13;2.17;;;;;;;24.53;49.93;101980.31;5026551;28;20033;-66
2022/08/30 10:56:44;;;;;;;5.25;2.15;;;;;;;24.92;49.27;101984.09;5025172;28;20041;-66
2022/08/30 10:59:10;;;;;;;8.07;2.50;;;;;;;24.84;45.69;101984.13;5026706;28;20025;-64
2022/08/30 11:02:02;;;;;;;5.72;1.90;;;;;;;24.77;48.21;101979.44;5026162;28;20048;-65
2022/08/30 11:05:05;;;;;;;7.70;1.75;;;;;;;24.92;49.06;101988.81;5018875;28;20037;-68
2022/08/30 11:07:53;;;;;;;3.00;1.88;;;;;;;24.95;47.87;101977.31;5007136;28;20106;-66
2022/08/30 11:11:00;;;;;;;4.65;2.10;;;;;;;24.89;47.57;101984.44;5006660;28;20040;-65
2022/08/30 11:13:29;;;;;;;5.40;2.30;;;;;;;25.17;45.40;101982.13;5024864;28;20040;-64
2022/08/30 11:15:58;;;;;;;3.38;1.83;;;;;;;25.40;46.64;101981.34;5026656;28;20512;-65
2022/08/30 11:18:27;;;;;;;5.97;2.28;;;;;;;25.37;45.44;101981.75;5024578;28;20619;-65
2022/08/30 11:21:14;;;;;;;5.30;2.28;;;;;;;25.22;45.86;101978.81;5026156;28;20053;-65
2022/08/30 11:23:40;;;;;;;4.35;2.22;;;;;;;25.05;45.29;101974.34;5024324;28;20041;-65
2022/08/30 11:26:09;;;;;;;3.97;2.60;;;;;;;24.83;44.71;101975.94;5024455;28;20091;-65
2022/08/30 11:28:35;;;;;;;5.20;2.20;;;;;;;24.99;45.46;101972.25;5025676;28;20057;-65
2022/08/30 11:31:11;;;;;;;5.45;2.20;;;;;;;25.04;46.29;101970.69;5026115;28;20029;-65
2022/08/30 11:33:58;;;;;;;9.63;2.33;;;;;;;25.04;47.22;101979.03;5024114;28;20037;-65
2022/08/30 11:36:37;;;;;;;3.80;2.20;;;;;;;25.09;46.11;101979.41;5026147;28;20060;-65